Decoded Metar for YSDU (DUBBO in AUSTRALIA) (IATA:DBO) | Meteo·Mobile Aviation Weather
aviador You're here:

YSDU Decoded Metar

DUBBO in AUSTRALIA
Report Time2018-08-21 12:00:00
UTC Time2018-08-21 12:12:19
Flight Rules vfr VFR
WindCalm
Visibility9999 m
Phenomena:N/A
Clouds:N/A
Expected CloudBase > 2,400 ft AGL from Temp-Dew spread
CeilingNone
Temp05°C (ISA -8)
Dew Point-1°C (66% RH)
AAT2.9°C
QNH1017 hPa
Density Alt-141 ft
Elevation902 ft
Report Wrong Elevation
Raw Report
METAR YSDU 211200Z AUTO 00000KT 9999 // NCD 05/M01 Q1017=

Extra information for YSDU:More info

Metar Taf Metar & Taf Last 4 Metars F.Rules Stats Wind Profile Meteogram Temp Stats Airport Information Weather charts Add Link Nearby VenuesMetar ALERT Operation Metar Decoded Social comments